sensor_id;sensor_type;location;lat;lon;timestamp;temperature;humidity
7254;DHT22;4060;49.186;9.226;2023-11-21T00:00:57;14.10;73.20
7254;DHT22;4060;49.186;9.226;2023-11-21T00:03:31;14.10;73.20
7254;DHT22;4060;49.186;9.226;2023-11-21T00:06:01;14.10;73.30
7254;DHT22;4060;49.186;9.226;2023-11-21T00:08:31;14.10;73.20
7254;DHT22;4060;49.186;9.226;2023-11-21T00:11:00;14.10;73.30
7254;DHT22;4060;49.186;9.226;2023-11-21T00:13:32;14.10;73.30
7254;DHT22;4060;49.186;9.226;2023-11-21T00:16:04;14.10;73.40
7254;DHT22;4060;49.186;9.226;2023-11-21T00:18:35;14.00;73.30
7254;DHT22;4060;49.186;9.226;2023-11-21T00:21:04;14.00;73.20
7254;DHT22;4060;49.186;9.226;2023-11-21T00:23:33;14.00;73.30
7254;DHT22;4060;49.186;9.226;2023-11-21T00:26:02;14.00;73.30
7254;DHT22;4060;49.186;9.226;2023-11-21T00:28:32;14.00;73.30
7254;DHT22;4060;49.186;9.226;2023-11-21T00:31:04;14.00;73.40
7254;DHT22;4060;49.186;9.226;2023-11-21T00:33:33;14.00;73.40
7254;DHT22;4060;49.186;9.226;2023-11-21T00:36:04;14.00;73.40
7254;DHT22;4060;49.186;9.226;2023-11-21T00:38:36;14.00;73.40
7254;DHT22;4060;49.186;9.226;2023-11-21T00:41:07;13.90;73.30
7254;DHT22;4060;49.186;9.226;2023-11-21T00:43:36;13.90;73.40
7254;DHT22;4060;49.186;9.226;2023-11-21T00:46:07;13.90;73.40
7254;DHT22;4060;49.186;9.226;2023-11-21T00:48:36;13.90;73.50
7254;DHT22;4060;49.186;9.226;2023-11-21T00:51:05;13.90;73.50
7254;DHT22;4060;49.186;9.226;2023-11-21T00:53:35;13.90;73.50
7254;DHT22;4060;49.186;9.226;2023-11-21T00:56:05;13.90;73.60
7254;DHT22;4060;49.186;9.226;2023-11-21T00:58:35;13.90;73.50
7254;DHT22;4060;49.186;9.226;2023-11-21T01:01:06;13.90;73.60
7254;DHT22;4060;49.186;9.226;2023-11-21T01:03:36;13.80;73.40
7254;DHT22;4060;49.186;9.226;2023-11-21T01:06:05;13.80;73.50
7254;DHT22;4060;49.186;9.226;2023-11-21T01:08:36;13.80;73.50
7254;DHT22;4060;49.186;9.226;2023-11-21T01:11:05;13.80;73.60
7254;DHT22;4060;49.186;9.226;2023-11-21T01:13:41;13.80;73.60
7254;DHT22;4060;49.186;9.226;2023-11-21T01:16:15;13.80;73.60
7254;DHT22;4060;49.186;9.226;2023-11-21T01:18:44;13.80;73.60
7254;DHT22;4060;49.186;9.226;2023-11-21T01:21:13;13.80;73.60
7254;DHT22;4060;49.186;9.226;2023-11-21T01:23:43;13.80;73.70
7254;DHT22;4060;49.186;9.226;2023-11-21T01:26:12;13.80;73.70
7254;DHT22;4060;49.186;9.226;2023-11-21T01:28:42;13.80;73.70
7254;DHT22;4060;49.186;9.226;2023-11-21T01:31:14;13.80;73.70
7254;DHT22;4060;49.186;9.226;2023-11-21T01:33:43;13.80;73.80
7254;DHT22;4060;49.186;9.226;2023-11-21T01:36:13;13.70;73.70
7254;DHT22;4060;49.186;9.226;2023-11-21T01:38:42;13.70;73.70
7254;DHT22;4060;49.186;9.226;2023-11-21T01:41:12;13.70;73.80
7254;DHT22;4060;49.186;9.226;2023-11-21T01:43:42;13.70;73.80
7254;DHT22;4060;49.186;9.226;2023-11-21T01:46:13;13.70;73.80
7254;DHT22;4060;49.186;9.226;2023-11-21T01:48:43;13.70;73.90
7254;DHT22;4060;49.186;9.226;2023-11-21T01:51:13;13.70;73.90
7254;DHT22;4060;49.186;9.226;2023-11-21T01:53:49;13.70;73.90
7254;DHT22;4060;49.186;9.226;2023-11-21T01:56:19;13.70;74.00
7254;DHT22;4060;49.186;9.226;2023-11-21T01:58:48;13.70;74.00
7254;DHT22;4060;49.186;9.226;2023-11-21T02:01:20;13.70;74.00
7254;DHT22;4060;49.186;9.226;2023-11-21T02:03:49;13.70;74.00
7254;DHT22;4060;49.186;9.226;2023-11-21T02:06:19;13.60;73.90
7254;DHT22;4060;49.186;9.226;2023-11-21T02:08:49;13.60;74.00
7254;DHT22;4060;49.186;9.226;2023-11-21T02:11:18;13.60;74.00
7254;DHT22;4060;49.186;9.226;2023-11-21T02:13:48;13.60;74.00
7254;DHT22;4060;49.186;9.226;2023-11-21T02:16:19;13.60;74.00
7254;DHT22;4060;49.186;9.226;2023-11-21T02:18:49;13.60;74.10
7254;DHT22;4060;49.186;9.226;2023-11-21T02:21:20;13.60;74.10
7254;DHT22;4060;49.186;9.226;2023-11-21T02:23:51;13.60;74.10
7254;DHT22;4060;49.186;9.226;2023-11-21T02:26:22;13.60;74.10
7254;DHT22;4060;49.186;9.226;2023-11-21T02:28:53;13.60;74.10
7254;DHT22;4060;49.186;9.226;2023-11-21T02:31:22;13.60;74.10
7254;DHT22;4060;49.186;9.226;2023-11-21T02:33:52;13.60;74.20
7254;DHT22;4060;49.186;9.226;2023-11-21T02:36:22;13.50;74.10
7254;DHT22;4060;49.186;9.226;2023-11-21T02:38:53;13.50;74.20
7254;DHT22;4060;49.186;9.226;2023-11-21T02:41:23;13.50;74.20
7254;DHT22;4060;49.186;9.226;2023-11-21T02:43:53;13.60;74.30
7254;DHT22;4060;49.186;9.226;2023-11-21T02:46:22;13.50;74.20
7254;DHT22;4060;49.186;9.226;2023-11-21T02:48:52;13.50;74.20
7254;DHT22;4060;49.186;9.226;2023-11-21T02:51:22;13.50;74.30
7254;DHT22;4060;49.186;9.226;2023-11-21T02:53:54;13.50;74.20
7254;DHT22;4060;49.186;9.226;2023-11-21T02:56:25;13.50;74.30
7254;DHT22;4060;49.186;9.226;2023-11-21T02:58:59;13.50;74.30
7254;DHT22;4060;49.186;9.226;2023-11-21T03:01:29;13.50;74.30
7254;DHT22;4060;49.186;9.226;2023-11-21T03:03:57;13.50;74.40
7254;DHT22;4060;49.186;9.226;2023-11-21T03:06:26;13.50;74.30
7254;DHT22;4060;49.186;9.226;2023-11-21T03:08:58;13.50;74.40
7254;DHT22;4060;49.186;9.226;2023-11-21T03:11:27;13.50;74.40
7254;DHT22;4060;49.186;9.226;2023-11-21T03:13:56;13.50;74.40
7254;DHT22;4060;49.186;9.226;2023-11-21T03:16:25;13.50;74.40
7254;DHT22;4060;49.186;9.226;2023-11-21T03:18:54;13.50;74.50
7254;DHT22;4060;49.186;9.226;2023-11-21T03:21:23;13.50;74.50
7254;DHT22;4060;49.186;9.226;2023-11-21T03:23:53;13.40;74.40
7254;DHT22;4060;49.186;9.226;2023-11-21T03:26:24;13.40;74.40
7254;DHT22;4060;49.186;9.226;2023-11-21T03:28:53;13.40;74.50
7254;DHT22;4060;49.186;9.226;2023-11-21T03:31:22;13.40;74.10
7254;DHT22;4060;49.186;9.226;2023-11-21T03:33:52;13.40;74.50
7254;DHT22;4060;49.186;9.226;2023-11-21T03:36:21;13.40;74.50
7254;DHT22;4060;49.186;9.226;2023-11-21T03:38:52;13.40;74.50
7254;DHT22;4060;49.186;9.226;2023-11-21T03:41:24;13.40;74.50
7254;DHT22;4060;49.186;9.226;2023-11-21T03:43:53;13.40;74.60
7254;DHT22;4060;49.186;9.226;2023-11-21T03:46:23;13.40;74.60
7254;DHT22;4060;49.186;9.226;2023-11-21T03:48:52;13.40;74.60
7254;DHT22;4060;49.186;9.226;2023-11-21T03:51:22;13.40;74.60
7254;DHT22;4060;49.186;9.226;2023-11-21T03:53:52;13.40;74.60
7254;DHT22;4060;49.186;9.226;2023-11-21T03:56:23;13.40;74.70
7254;DHT22;4060;49.186;9.226;2023-11-21T03:58:53;13.40;74.60
7254;DHT22;4060;49.186;9.226;2023-11-21T04:01:22;13.40;74.60
7254;DHT22;4060;49.186;9.226;2023-11-21T04:03:52;13.30;74.50
7254;DHT22;4060;49.186;9.226;2023-11-21T04:06:22;13.40;74.70
7254;DHT22;4060;49.186;9.226;2023-11-21T04:08:52;13.30;74.60
7254;DHT22;4060;49.186;9.226;2023-11-21T04:11:24;13.40;74.80
7254;DHT22;4060;49.186;9.226;2023-11-21T04:13:55;13.30;74.70
7254;DHT22;4060;49.186;9.226;2023-11-21T04:16:24;13.30;75.00
7254;DHT22;4060;49.186;9.226;2023-11-21T04:18:54;13.40;74.80
7254;DHT22;4060;49.186;9.226;2023-11-21T04:21:24;13.30;74.70
7254;DHT22;4060;49.186;9.226;2023-11-21T04:23:53;13.30;74.80
7254;DHT22;4060;49.186;9.226;2023-11-21T04:26:24;13.30;74.80
7254;DHT22;4060;49.186;9.226;2023-11-21T04:28:53;13.30;74.80
7254;DHT22;4060;49.186;9.226;2023-11-21T04:31:23;13.30;74.80
7254;DHT22;4060;49.186;9.226;2023-11-21T04:33:52;13.30;74.80
7254;DHT22;4060;49.186;9.226;2023-11-21T04:36:22;13.30;74.80
7254;DHT22;4060;49.186;9.226;2023-11-21T04:38:51;13.30;74.80
7254;DHT22;4060;49.186;9.226;2023-11-21T04:41:20;13.30;74.80
7254;DHT22;4060;49.186;9.226;2023-11-21T04:43:51;13.30;74.80
7254;DHT22;4060;49.186;9.226;2023-11-21T04:46:21;13.30;74.90
7254;DHT22;4060;49.186;9.226;2023-11-21T04:48:51;13.30;74.90
7254;DHT22;4060;49.186;9.226;2023-11-21T04:51:21;13.30;75.00
7254;DHT22;4060;49.186;9.226;2023-11-21T04:53:50;13.30;74.90
7254;DHT22;4060;49.186;9.226;2023-11-21T04:56:19;13.30;74.90
7254;DHT22;4060;49.186;9.226;2023-11-21T04:58:50;13.30;75.00
7254;DHT22;4060;49.186;9.226;2023-11-21T05:01:19;13.30;75.00
7254;DHT22;4060;49.186;9.226;2023-11-21T05:03:48;13.20;74.90
7254;DHT22;4060;49.186;9.226;2023-11-21T05:06:17;13.20;74.90
7254;DHT22;4060;49.186;9.226;2023-11-21T05:08:46;13.30;75.10
7254;DHT22;4060;49.186;9.226;2023-11-21T05:11:25;13.20;75.00
7254;DHT22;4060;49.186;9.226;2023-11-21T05:13:56;13.20;75.00
7254;DHT22;4060;49.186;9.226;2023-11-21T05:16:26;13.20;75.00
7254;DHT22;4060;49.186;9.226;2023-11-21T05:18:56;13.20;75.00
7254;DHT22;4060;49.186;9.226;2023-11-21T05:21:27;13.30;75.10
7254;DHT22;4060;49.186;9.226;2023-11-21T05:23:58;13.20;75.00
7254;DHT22;4060;49.186;9.226;2023-11-21T05:26:27;13.20;75.00
7254;DHT22;4060;49.186;9.226;2023-11-21T05:29:05;13.20;75.10
7254;DHT22;4060;49.186;9.226;2023-11-21T05:31:34;13.20;75.10
7254;DHT22;4060;49.186;9.226;2023-11-21T05:34:04;13.20;75.10
7254;DHT22;4060;49.186;9.226;2023-11-21T05:36:33;13.20;75.10
7254;DHT22;4060;49.186;9.226;2023-11-21T05:39:03;13.20;75.10
7254;DHT22;4060;49.186;9.226;2023-11-21T05:41:33;13.20;75.20
7254;DHT22;4060;49.186;9.226;2023-11-21T05:44:04;13.20;75.20
7254;DHT22;4060;49.186;9.226;2023-11-21T05:46:35;13.20;75.30
7254;DHT22;4060;49.186;9.226;2023-11-21T05:49:04;13.20;75.30
7254;DHT22;4060;49.186;9.226;2023-11-21T05:51:34;13.20;75.30
7254;DHT22;4060;49.186;9.226;2023-11-21T05:54:04;13.20;75.30
7254;DHT22;4060;49.186;9.226;2023-11-21T05:56:33;13.20;75.20
7254;DHT22;4060;49.186;9.226;2023-11-21T05:59:04;13.10;75.20
7254;DHT22;4060;49.186;9.226;2023-11-21T06:01:33;13.10;75.20
7254;DHT22;4060;49.186;9.226;2023-11-21T06:04:05;13.20;75.30
7254;DHT22;4060;49.186;9.226;2023-11-21T06:06:36;13.10;75.20
7254;DHT22;4060;49.186;9.226;2023-11-21T06:09:06;13.10;75.30
7254;DHT22;4060;49.186;9.226;2023-11-21T06:11:36;13.10;75.20
7254;DHT22;4060;49.186;9.226;2023-11-21T06:14:07;13.10;75.30
7254;DHT22;4060;49.186;9.226;2023-11-21T06:16:38;13.10;75.30
7254;DHT22;4060;49.186;9.226;2023-11-21T06:19:07;13.10;75.30
7254;DHT22;4060;49.186;9.226;2023-11-21T06:21:37;13.10;75.30
7254;DHT22;4060;49.186;9.226;2023-11-21T06:24:07;13.10;75.30
7254;DHT22;4060;49.186;9.226;2023-11-21T06:26:36;13.10;75.30
7254;DHT22;4060;49.186;9.226;2023-11-21T06:29:07;13.10;75.30
7254;DHT22;4060;49.186;9.226;2023-11-21T06:31:36;13.10;75.40
7254;DHT22;4060;49.186;9.226;2023-11-21T06:34:07;13.10;75.30
7254;DHT22;4060;49.186;9.226;2023-11-21T06:36:38;13.10;75.40
7254;DHT22;4060;49.186;9.226;2023-11-21T06:39:07;13.10;75.40
7254;DHT22;4060;49.186;9.226;2023-11-21T06:41:37;13.10;75.40
7254;DHT22;4060;49.186;9.226;2023-11-21T06:44:08;13.10;75.50
7254;DHT22;4060;49.186;9.226;2023-11-21T06:46:38;13.10;75.50
7254;DHT22;4060;49.186;9.226;2023-11-21T06:49:09;13.10;75.60
7254;DHT22;4060;49.186;9.226;2023-11-21T06:51:38;13.10;75.50
7254;DHT22;4060;49.186;9.226;2023-11-21T06:54:07;13.10;75.60
7254;DHT22;4060;49.186;9.226;2023-11-21T06:56:36;13.10;75.60
7254;DHT22;4060;49.186;9.226;2023-11-21T06:59:08;13.10;75.60
7254;DHT22;4060;49.186;9.226;2023-11-21T07:01:37;13.10;75.60
7254;DHT22;4060;49.186;9.226;2023-11-21T07:04:08;13.10;75.60
7254;DHT22;4060;49.186;9.226;2023-11-21T07:06:38;13.10;75.60
7254;DHT22;4060;49.186;9.226;2023-11-21T07:09:07;13.10;75.70
7254;DHT22;4060;49.186;9.226;2023-11-21T07:11:38;13.10;75.70
7254;DHT22;4060;49.186;9.226;2023-11-21T07:14:09;13.10;75.70
7254;DHT22;4060;49.186;9.226;2023-11-21T07:16:39;13.10;75.70
7254;DHT22;4060;49.186;9.226;2023-11-21T07:19:08;13.10;75.80
7254;DHT22;4060;49.186;9.226;2023-11-21T07:21:39;13.10;75.70
7254;DHT22;4060;49.186;9.226;2023-11-21T07:24:09;13.10;75.80
7254;DHT22;4060;49.186;9.226;2023-11-21T07:26:38;13.10;75.90
7254;DHT22;4060;49.186;9.226;2023-11-21T07:29:09;13.10;75.90
7254;DHT22;4060;49.186;9.226;2023-11-21T07:31:39;13.10;75.80
7254;DHT22;4060;49.186;9.226;2023-11-21T07:34:08;13.10;75.90
7254;DHT22;4060;49.186;9.226;2023-11-21T07:36:39;13.10;75.90
7254;DHT22;4060;49.186;9.226;2023-11-21T07:39:08;13.00;75.80
7254;DHT22;4060;49.186;9.226;2023-11-21T07:41:38;13.00;75.80
7254;DHT22;4060;49.186;9.226;2023-11-21T07:44:15;13.10;76.00
7254;DHT22;4060;49.186;9.226;2023-11-21T07:46:47;13.00;75.90
7254;DHT22;4060;49.186;9.226;2023-11-21T07:49:16;13.10;76.10
7254;DHT22;4060;49.186;9.226;2023-11-21T07:51:48;13.00;76.10
7254;DHT22;4060;49.186;9.226;2023-11-21T07:54:18;13.00;76.10
7254;DHT22;4060;49.186;9.226;2023-11-21T07:56:48;13.00;76.20
7254;DHT22;4060;49.186;9.226;2023-11-21T07:59:19;13.00;76.20
7254;DHT22;4060;49.186;9.226;2023-11-21T08:01:49;13.00;76.30
7254;DHT22;4060;49.186;9.226;2023-11-21T08:04:19;13.00;76.40
7254;DHT22;4060;49.186;9.226;2023-11-21T08:06:49;13.00;76.30
7254;DHT22;4060;49.186;9.226;2023-11-21T08:09:19;13.00;76.40
7254;DHT22;4060;49.186;9.226;2023-11-21T08:12:06;13.00;76.50
7254;DHT22;4060;49.186;9.226;2023-11-21T08:14:37;13.00;76.50
7254;DHT22;4060;49.186;9.226;2023-11-21T08:17:07;13.00;76.50
7254;DHT22;4060;49.186;9.226;2023-11-21T08:19:37;13.00;76.50
7254;DHT22;4060;49.186;9.226;2023-11-21T08:22:07;13.00;76.60
7254;DHT22;4060;49.186;9.226;2023-11-21T08:24:37;13.00;76.60
7254;DHT22;4060;49.186;9.226;2023-11-21T08:27:06;13.00;76.70
7254;DHT22;4060;49.186;9.226;2023-11-21T08:29:38;12.90;76.50
7254;DHT22;4060;49.186;9.226;2023-11-21T08:32:07;13.00;76.70
7254;DHT22;4060;49.186;9.226;2023-11-21T08:34:37;12.90;76.60
7254;DHT22;4060;49.186;9.226;2023-11-21T08:37:07;12.90;76.60
7254;DHT22;4060;49.186;9.226;2023-11-21T08:39:38;12.90;76.60
7254;DHT22;4060;49.186;9.226;2023-11-21T08:42:09;13.00;76.80
7254;DHT22;4060;49.186;9.226;2023-11-21T08:44:41;12.90;76.70
7254;DHT22;4060;49.186;9.226;2023-11-21T08:47:10;13.00;76.80
7254;DHT22;4060;49.186;9.226;2023-11-21T08:49:41;12.90;76.70
7254;DHT22;4060;49.186;9.226;2023-11-21T08:52:11;13.00;76.90
7254;DHT22;4060;49.186;9.226;2023-11-21T08:54:41;12.90;76.80
7254;DHT22;4060;49.186;9.226;2023-11-21T08:57:11;13.00;77.00
7254;DHT22;4060;49.186;9.226;2023-11-21T08:59:43;12.90;76.80
7254;DHT22;4060;49.186;9.226;2023-11-21T09:02:12;13.00;76.90
7254;DHT22;4060;49.186;9.226;2023-11-21T09:04:41;13.00;76.90
7254;DHT22;4060;49.186;9.226;2023-11-21T09:07:11;13.00;77.00
7254;DHT22;4060;49.186;9.226;2023-11-21T09:09:41;13.00;77.00
7254;DHT22;4060;49.186;9.226;2023-11-21T09:12:11;13.00;77.10
7254;DHT22;4060;49.186;9.226;2023-11-21T09:14:43;13.00;77.00
7254;DHT22;4060;49.186;9.226;2023-11-21T09:17:13;13.00;77.10
7254;DHT22;4060;49.186;9.226;2023-11-21T09:19:42;13.00;77.10
7254;DHT22;4060;49.186;9.226;2023-11-21T09:22:14;13.00;77.10
7254;DHT22;4060;49.186;9.226;2023-11-21T09:24:56;13.00;77.20
7254;DHT22;4060;49.186;9.226;2023-11-21T09:27:32;13.00;77.10
7254;DHT22;4060;49.186;9.226;2023-11-21T09:30:05;13.00;77.10
7254;DHT22;4060;49.186;9.226;2023-11-21T09:32:37;13.00;77.10
7254;DHT22;4060;49.186;9.226;2023-11-21T09:35:08;13.00;77.00
7254;DHT22;4060;49.186;9.226;2023-11-21T09:37:37;13.00;77.00
7254;DHT22;4060;49.186;9.226;2023-11-21T09:40:10;13.00;77.10
7254;DHT22;4060;49.186;9.226;2023-11-21T09:42:43;13.00;77.10
7254;DHT22;4060;49.186;9.226;2023-11-21T09:45:26;13.00;77.10
7254;DHT22;4060;49.186;9.226;2023-11-21T09:47:56;13.00;77.20
7254;DHT22;4060;49.186;9.226;2023-11-21T09:50:26;13.00;77.10
7254;DHT22;4060;49.186;9.226;2023-11-21T09:52:58;13.00;77.20
7254;DHT22;4060;49.186;9.226;2023-11-21T09:55:35;13.00;77.10
7254;DHT22;4060;49.186;9.226;2023-11-21T09:58:05;13.00;77.10
7254;DHT22;4060;49.186;9.226;2023-11-21T10:00:45;13.00;77.10
7254;DHT22;4060;49.186;9.226;2023-11-21T10:03:15;13.00;77.10
7254;DHT22;4060;49.186;9.226;2023-11-21T10:05:46;13.00;77.10
7254;DHT22;4060;49.186;9.226;2023-11-21T10:08:31;13.00;77.10
7254;DHT22;4060;49.186;9.226;2023-11-21T10:11:01;13.00;77.10
7254;DHT22;4060;49.186;9.226;2023-11-21T10:13:34;13.00;77.10
7254;DHT22;4060;49.186;9.226;2023-11-21T10:16:08;13.00;77.20
7254;DHT22;4060;49.186;9.226;2023-11-21T10:18:40;13.00;77.10
7254;DHT22;4060;49.186;9.226;2023-11-21T10:21:12;13.00;77.20
7254;DHT22;4060;49.186;9.226;2023-11-21T10:23:41;13.00;77.10
7254;DHT22;4060;49.186;9.226;2023-11-21T10:26:12;13.10;77.20
7254;DHT22;4060;49.186;9.226;2023-11-21T10:28:56;13.00;77.10
7254;DHT22;4060;49.186;9.226;2023-11-21T10:31:29;13.00;77.20
7254;DHT22;4060;49.186;9.226;2023-11-21T10:34:13;13.10;77.30
7254;DHT22;4060;49.186;9.226;2023-11-21T10:36:42;13.10;78.10
7254;DHT22;4060;49.186;9.226;2023-11-21T10:39:16;13.10;77.30
7254;DHT22;4060;49.186;9.226;2023-11-21T10:41:46;13.00;77.20
7254;DHT22;4060;49.186;9.226;2023-11-21T10:44:16;13.10;77.40
7254;DHT22;4060;49.186;9.226;2023-11-21T10:46:49;13.10;77.40
7254;DHT22;4060;49.186;9.226;2023-11-21T10:49:21;13.10;77.40
7254;DHT22;4060;49.186;9.226;2023-11-21T10:51:51;13.10;77.40
7254;DHT22;4060;49.186;9.226;2023-11-21T10:54:22;13.10;77.40
7254;DHT22;4060;49.186;9.226;2023-11-21T10:56:56;13.10;77.50
7254;DHT22;4060;49.186;9.226;2023-11-21T10:59:29;13.10;77.70
7254;DHT22;4060;49.186;9.226;2023-11-21T11:02:02;13.10;77.70
7254;DHT22;4060;49.186;9.226;2023-11-21T11:04:34;13.20;78.10
7254;DHT22;4060;49.186;9.226;2023-11-21T11:07:06;13.10;77.80
7254;DHT22;4060;49.186;9.226;2023-11-21T11:09:40;13.10;78.60
7254;DHT22;4060;49.186;9.226;2023-11-21T11:12:12;13.20;78.10
7254;DHT22;4060;49.186;9.226;2023-11-21T11:14:44;13.20;78.10
7254;DHT22;4060;49.186;9.226;2023-11-21T11:17:18;13.20;78.10
7254;DHT22;4060;49.186;9.226;2023-11-21T11:19:48;13.20;78.20
7254;DHT22;4060;49.186;9.226;2023-11-21T11:22:29;13.20;78.20
7254;DHT22;4060;49.186;9.226;2023-11-21T11:25:25;13.20;78.40
7254;DHT22;4060;49.186;9.226;2023-11-21T11:28:03;13.20;78.30
7254;DHT22;4060;49.186;9.226;2023-11-21T11:30:50;13.20;78.40
7254;DHT22;4060;49.186;9.226;2023-11-21T11:33:35;13.20;78.40
7254;DHT22;4060;49.186;9.226;2023-11-21T11:36:08;13.20;78.40
7254;DHT22;4060;49.186;9.226;2023-11-21T11:38:47;13.20;78.40
7254;DHT22;4060;49.186;9.226;2023-11-21T11:41:26;13.30;78.60
7254;DHT22;4060;49.186;9.226;2023-11-21T11:43:56;13.20;78.50
7254;DHT22;4060;49.186;9.226;2023-11-21T11:46:40;13.30;78.50
7254;DHT22;4060;49.186;9.226;2023-11-21T11:49:24;13.30;78.60
7254;DHT22;4060;49.186;9.226;2023-11-21T11:54:56;13.30;78.70
7254;DHT22;4060;49.186;9.226;2023-11-21T11:57:26;13.30;78.60
7254;DHT22;4060;49.186;9.226;2023-11-21T12:00:13;13.30;78.60
7254;DHT22;4060;49.186;9.226;2023-11-21T12:02:47;13.30;78.70
7254;DHT22;4060;49.186;9.226;2023-11-21T12:05:19;13.40;78.70
7254;DHT22;4060;49.186;9.226;2023-11-21T12:07:51;13.40;78.70
7254;DHT22;4060;49.186;9.226;2023-11-21T12:10:21;13.40;78.80
7254;DHT22;4060;49.186;9.226;2023-11-21T12:12:52;13.40;78.70
7254;DHT22;4060;49.186;9.226;2023-11-21T12:15:22;13.40;78.70
7254;DHT22;4060;49.186;9.226;2023-11-21T12:17:53;13.40;78.80
7254;DHT22;4060;49.186;9.226;2023-11-21T12:20:24;13.40;78.80
7254;DHT22;4060;49.186;9.226;2023-11-21T12:22:55;13.50;78.90
7254;DHT22;4060;49.186;9.226;2023-11-21T12:25:26;13.50;78.80
7254;DHT22;4060;49.186;9.226;2023-11-21T12:27:59;13.50;78.80
7254;DHT22;4060;49.186;9.226;2023-11-21T12:30:30;13.50;78.70
7254;DHT22;4060;49.186;9.226;2023-11-21T12:33:01;13.50;78.70
7254;DHT22;4060;49.186;9.226;2023-11-21T12:35:33;13.50;78.70
7254;DHT22;4060;49.186;9.226;2023-11-21T12:38:04;13.50;78.70
7254;DHT22;4060;49.186;9.226;2023-11-21T12:40:36;13.50;78.70
7254;DHT22;4060;49.186;9.226;2023-11-21T12:43:06;13.50;78.70
7254;DHT22;4060;49.186;9.226;2023-11-21T12:45:36;13.60;78.70
7254;DHT22;4060;49.186;9.226;2023-11-21T12:48:06;13.60;78.70
7254;DHT22;4060;49.186;9.226;2023-11-21T12:50:40;13.60;78.60
7254;DHT22;4060;49.186;9.226;2023-11-21T12:53:10;13.60;78.60
7254;DHT22;4060;49.186;9.226;2023-11-21T12:55:40;13.60;78.60
7254;DHT22;4060;49.186;9.226;2023-11-21T12:58:11;13.60;78.60
7254;DHT22;4060;49.186;9.226;2023-11-21T13:00:42;13.60;78.50
7254;DHT22;4060;49.186;9.226;2023-11-21T13:03:13;13.60;78.40
7254;DHT22;4060;49.186;9.226;2023-11-21T13:05:47;13.60;78.40
7254;DHT22;4060;49.186;9.226;2023-11-21T13:08:18;13.60;78.30
7254;DHT22;4060;49.186;9.226;2023-11-21T13:10:50;13.70;78.50
7254;DHT22;4060;49.186;9.226;2023-11-21T13:13:21;13.70;78.50
7254;DHT22;4060;49.186;9.226;2023-11-21T13:15:52;13.70;78.40
7254;DHT22;4060;49.186;9.226;2023-11-21T13:18:23;13.70;78.40
7254;DHT22;4060;49.186;9.226;2023-11-21T13:20:56;13.70;78.30
7254;DHT22;4060;49.186;9.226;2023-11-21T13:23:26;13.70;78.30
7254;DHT22;4060;49.186;9.226;2023-11-21T13:25:56;13.70;78.30
7254;DHT22;4060;49.186;9.226;2023-11-21T13:28:32;13.70;78.20
7254;DHT22;4060;49.186;9.226;2023-11-21T13:31:02;13.70;78.30
7254;DHT22;4060;49.186;9.226;2023-11-21T13:33:37;13.70;78.20
7254;DHT22;4060;49.186;9.226;2023-11-21T13:36:12;13.70;78.10
7254;DHT22;4060;49.186;9.226;2023-11-21T13:38:42;13.70;78.00
7254;DHT22;4060;49.186;9.226;2023-11-21T13:41:13;13.70;77.90
7254;DHT22;4060;49.186;9.226;2023-11-21T13:43:42;13.70;77.80
7254;DHT22;4060;49.186;9.226;2023-11-21T13:46:18;13.70;77.70
7254;DHT22;4060;49.186;9.226;2023-11-21T13:48:50;13.70;77.60
7254;DHT22;4060;49.186;9.226;2023-11-21T13:51:25;13.70;77.50
7254;DHT22;4060;49.186;9.226;2023-11-21T13:54:06;13.70;77.50
7254;DHT22;4060;49.186;9.226;2023-11-21T13:56:37;13.70;77.40
7254;DHT22;4060;49.186;9.226;2023-11-21T13:59:07;13.70;77.40
7254;DHT22;4060;49.186;9.226;2023-11-21T14:01:46;13.70;77.30
7254;DHT22;4060;49.186;9.226;2023-11-21T14:04:26;13.70;77.30
7254;DHT22;4060;49.186;9.226;2023-11-21T14:07:24;13.70;77.20
7254;DHT22;4060;49.186;9.226;2023-11-21T14:10:02;13.70;77.20
7254;DHT22;4060;49.186;9.226;2023-11-21T14:12:34;13.70;77.20
7254;DHT22;4060;49.186;9.226;2023-11-21T14:15:07;13.70;77.20
7254;DHT22;4060;49.186;9.226;2023-11-21T14:17:37;13.70;77.20
7254;DHT22;4060;49.186;9.226;2023-11-21T14:20:08;13.70;77.90
7254;DHT22;4060;49.186;9.226;2023-11-21T14:22:45;13.70;77.10
7254;DHT22;4060;49.186;9.226;2023-11-21T14:25:14;13.70;77.00
7254;DHT22;4060;49.186;9.226;2023-11-21T14:27:44;13.70;77.00
7254;DHT22;4060;49.186;9.226;2023-11-21T14:30:14;13.80;77.00
7254;DHT22;4060;49.186;9.226;2023-11-21T14:32:46;13.80;77.10
7254;DHT22;4060;49.186;9.226;2023-11-21T14:35:16;13.80;77.00
7254;DHT22;4060;49.186;9.226;2023-11-21T14:37:47;13.80;77.00
7254;DHT22;4060;49.186;9.226;2023-11-21T14:40:16;13.80;76.90
7254;DHT22;4060;49.186;9.226;2023-11-21T14:42:48;13.80;76.90
7254;DHT22;4060;49.186;9.226;2023-11-21T14:45:20;13.80;76.80
7254;DHT22;4060;49.186;9.226;2023-11-21T14:47:50;13.80;76.80
7254;DHT22;4060;49.186;9.226;2023-11-21T14:50:28;13.80;76.70
7254;DHT22;4060;49.186;9.226;2023-11-21T14:53:39;13.80;76.70
7254;DHT22;4060;49.186;9.226;2023-11-21T14:56:22;13.80;76.70
7254;DHT22;4060;49.186;9.226;2023-11-21T14:58:58;13.80;76.70
7254;DHT22;4060;49.186;9.226;2023-11-21T15:01:33;13.80;76.70
7254;DHT22;4060;49.186;9.226;2023-11-21T15:04:12;13.80;76.70
7254;DHT22;4060;49.186;9.226;2023-11-21T15:06:55;13.80;76.60
7254;DHT22;4060;49.186;9.226;2023-11-21T15:09:27;13.80;76.70
7254;DHT22;4060;49.186;9.226;2023-11-21T15:12:09;13.80;76.60
7254;DHT22;4060;49.186;9.226;2023-11-21T15:14:47;13.80;76.50
7254;DHT22;4060;49.186;9.226;2023-11-21T15:17:19;13.80;76.50
7254;DHT22;4060;49.186;9.226;2023-11-21T15:19:53;13.80;76.50
7254;DHT22;4060;49.186;9.226;2023-11-21T15:22:23;13.80;76.40
7254;DHT22;4060;49.186;9.226;2023-11-21T15:24:57;13.70;76.30
7254;DHT22;4060;49.186;9.226;2023-11-21T15:27:28;13.70;76.30
7254;DHT22;4060;49.186;9.226;2023-11-21T15:29:58;13.80;76.30
7254;DHT22;4060;49.186;9.226;2023-11-21T15:32:27;13.80;76.30
7254;DHT22;4060;49.186;9.226;2023-11-21T15:34:56;13.70;76.20
7254;DHT22;4060;49.186;9.226;2023-11-21T15:37:27;13.70;76.10
7254;DHT22;4060;49.186;9.226;2023-11-21T15:40:11;13.70;76.00
7254;DHT22;4060;49.186;9.226;2023-11-21T15:42:42;13.70;76.00
7254;DHT22;4060;49.186;9.226;2023-11-21T15:45:12;13.70;76.00
7254;DHT22;4060;49.186;9.226;2023-11-21T15:47:41;13.70;76.00
7254;DHT22;4060;49.186;9.226;2023-11-21T15:50:09;13.70;75.90
7254;DHT22;4060;49.186;9.226;2023-11-21T15:52:40;13.70;75.90
7254;DHT22;4060;49.186;9.226;2023-11-21T15:55:12;13.70;75.90
7254;DHT22;4060;49.186;9.226;2023-11-21T15:57:41;13.70;75.90
7254;DHT22;4060;49.186;9.226;2023-11-21T16:00:11;13.70;75.90
7254;DHT22;4060;49.186;9.226;2023-11-21T16:02:44;13.70;75.90
7254;DHT22;4060;49.186;9.226;2023-11-21T16:05:13;13.70;75.80
7254;DHT22;4060;49.186;9.226;2023-11-21T16:07:43;13.70;75.80
7254;DHT22;4060;49.186;9.226;2023-11-21T16:10:14;13.70;75.80
7254;DHT22;4060;49.186;9.226;2023-11-21T16:12:44;13.70;75.80
7254;DHT22;4060;49.186;9.226;2023-11-21T16:15:13;13.70;76.50
7254;DHT22;4060;49.186;9.226;2023-11-21T16:17:45;13.70;75.70
7254;DHT22;4060;49.186;9.226;2023-11-21T16:20:14;13.60;75.60
7254;DHT22;4060;49.186;9.226;2023-11-21T16:22:43;13.70;75.70
7254;DHT22;4060;49.186;9.226;2023-11-21T16:25:14;13.70;75.70
7254;DHT22;4060;49.186;9.226;2023-11-21T16:27:44;13.70;75.70
7254;DHT22;4060;49.186;9.226;2023-11-21T16:30:13;13.60;75.50
7254;DHT22;4060;49.186;9.226;2023-11-21T16:32:45;13.60;75.60